sensor_id;sensor_type;location;lat;lon;timestamp;P1;durP1;ratioP1;P2;durP2;ratioP2
20776;SDS011;10548;47.504;8.248;2023-04-15T00:00:56;8.83;;;1.73;;
20776;SDS011;10548;47.504;8.248;2023-04-15T00:03:25;7.37;;;1.90;;
20776;SDS011;10548;47.504;8.248;2023-04-15T00:05:53;5.87;;;1.60;;
20776;SDS011;10548;47.504;8.248;2023-04-15T00:08:20;4.57;;;1.93;;
20776;SDS011;10548;47.504;8.248;2023-04-15T00:10:47;4.57;;;2.10;;
20776;SDS011;10548;47.504;8.248;2023-04-15T00:13:14;5.13;;;1.90;;
20776;SDS011;10548;47.504;8.248;2023-04-15T00:15:42;9.43;;;2.27;;
20776;SDS011;10548;47.504;8.248;2023-04-15T00:18:09;4.87;;;2.10;;
20776;SDS011;10548;47.504;8.248;2023-04-15T00:20:36;8.30;;;2.47;;
20776;SDS011;10548;47.504;8.248;2023-04-15T00:23:03;7.37;;;2.57;;
20776;SDS011;10548;47.504;8.248;2023-04-15T00:25:31;13.40;;;2.93;;
20776;SDS011;10548;47.504;8.248;2023-04-15T00:27:58;4.40;;;2.60;;
20776;SDS011;10548;47.504;8.248;2023-04-15T00:30:25;6.87;;;2.77;;
20776;SDS011;10548;47.504;8.248;2023-04-15T00:32:52;8.13;;;2.70;;
20776;SDS011;10548;47.504;8.248;2023-04-15T00:35:20;8.57;;;2.60;;
20776;SDS011;10548;47.504;8.248;2023-04-15T00:37:49;4.03;;;2.13;;
20776;SDS011;10548;47.504;8.248;2023-04-15T00:40:17;9.37;;;2.70;;
20776;SDS011;10548;47.504;8.248;2023-04-15T00:42:46;8.03;;;2.60;;
20776;SDS011;10548;47.504;8.248;2023-04-15T00:45:13;5.00;;;2.40;;
20776;SDS011;10548;47.504;8.248;2023-04-15T00:47:42;4.03;;;2.00;;
20776;SDS011;10548;47.504;8.248;2023-04-15T00:50:09;3.97;;;2.10;;
20776;SDS011;10548;47.504;8.248;2023-04-15T00:52:38;8.37;;;2.43;;
20776;SDS011;10548;47.504;8.248;2023-04-15T00:55:06;7.60;;;2.57;;
20776;SDS011;10548;47.504;8.248;2023-04-15T00:57:34;6.80;;;2.43;;
20776;SDS011;10548;47.504;8.248;2023-04-15T01:00:02;7.10;;;2.73;;
20776;SDS011;10548;47.504;8.248;2023-04-15T01:02:40;5.50;;;2.53;;
20776;SDS011;10548;47.504;8.248;2023-04-15T01:05:08;11.07;;;2.63;;
20776;SDS011;10548;47.504;8.248;2023-04-15T01:07:35;8.40;;;2.63;;
20776;SDS011;10548;47.504;8.248;2023-04-15T01:10:03;8.70;;;2.50;;
20776;SDS011;10548;47.504;8.248;2023-04-15T01:12:31;9.53;;;4.00;;
20776;SDS011;10548;47.504;8.248;2023-04-15T01:14:59;11.33;;;4.47;;
20776;SDS011;10548;47.504;8.248;2023-04-15T01:17:27;6.57;;;2.93;;
20776;SDS011;10548;47.504;8.248;2023-04-15T01:19:55;5.33;;;2.80;;
20776;SDS011;10548;47.504;8.248;2023-04-15T01:22:25;11.77;;;3.57;;
20776;SDS011;10548;47.504;8.248;2023-04-15T01:24:54;6.37;;;3.13;;
20776;SDS011;10548;47.504;8.248;2023-04-15T01:27:29;8.23;;;3.10;;
20776;SDS011;10548;47.504;8.248;2023-04-15T01:29:56;9.20;;;3.60;;
20776;SDS011;10548;47.504;8.248;2023-04-15T01:32:24;8.90;;;3.30;;
20776;SDS011;10548;47.504;8.248;2023-04-15T01:34:51;11.17;;;3.80;;
20776;SDS011;10548;47.504;8.248;2023-04-15T01:37:22;8.77;;;2.93;;
20776;SDS011;10548;47.504;8.248;2023-04-15T01:39:50;7.73;;;3.43;;
20776;SDS011;10548;47.504;8.248;2023-04-15T01:42:17;7.47;;;3.57;;
20776;SDS011;10548;47.504;8.248;2023-04-15T01:44:44;8.90;;;3.73;;
20776;SDS011;10548;47.504;8.248;2023-04-15T01:47:11;6.20;;;3.23;;
20776;SDS011;10548;47.504;8.248;2023-04-15T01:49:40;8.00;;;2.80;;
20776;SDS011;10548;47.504;8.248;2023-04-15T01:52:07;5.57;;;2.30;;
20776;SDS011;10548;47.504;8.248;2023-04-15T01:54:34;6.13;;;2.67;;
20776;SDS011;10548;47.504;8.248;2023-04-15T01:57:01;6.63;;;2.60;;
20776;SDS011;10548;47.504;8.248;2023-04-15T01:59:29;7.40;;;2.30;;
20776;SDS011;10548;47.504;8.248;2023-04-15T02:01:57;8.40;;;3.47;;
20776;SDS011;10548;47.504;8.248;2023-04-15T02:04:26;9.33;;;3.00;;
20776;SDS011;10548;47.504;8.248;2023-04-15T02:06:53;6.47;;;3.07;;
20776;SDS011;10548;47.504;8.248;2023-04-15T02:09:20;8.63;;;3.23;;
20776;SDS011;10548;47.504;8.248;2023-04-15T02:11:47;5.50;;;2.97;;
20776;SDS011;10548;47.504;8.248;2023-04-15T02:14:14;6.07;;;2.80;;
20776;SDS011;10548;47.504;8.248;2023-04-15T02:16:41;7.27;;;2.93;;
20776;SDS011;10548;47.504;8.248;2023-04-15T02:19:09;7.50;;;3.23;;
20776;SDS011;10548;47.504;8.248;2023-04-15T02:21:36;6.13;;;3.00;;
20776;SDS011;10548;47.504;8.248;2023-04-15T02:24:03;12.53;;;3.13;;
20776;SDS011;10548;47.504;8.248;2023-04-15T02:26:31;5.57;;;2.80;;
20776;SDS011;10548;47.504;8.248;2023-04-15T02:28:59;7.40;;;3.23;;
20776;SDS011;10548;47.504;8.248;2023-04-15T02:31:26;6.27;;;2.63;;
20776;SDS011;10548;47.504;8.248;2023-04-15T02:33:53;10.40;;;3.57;;
20776;SDS011;10548;47.504;8.248;2023-04-15T02:36:20;10.27;;;3.23;;
20776;SDS011;10548;47.504;8.248;2023-04-15T02:38:49;8.93;;;3.50;;
20776;SDS011;10548;47.504;8.248;2023-04-15T02:41:17;6.30;;;3.23;;
20776;SDS011;10548;47.504;8.248;2023-04-15T02:43:45;7.27;;;2.70;;
20776;SDS011;10548;47.504;8.248;2023-04-15T02:46:13;8.23;;;3.23;;
20776;SDS011;10548;47.504;8.248;2023-04-15T02:48:40;7.93;;;2.70;;
20776;SDS011;10548;47.504;8.248;2023-04-15T02:51:14;8.20;;;3.23;;
20776;SDS011;10548;47.504;8.248;2023-04-15T02:53:48;7.73;;;3.20;;
20776;SDS011;10548;47.504;8.248;2023-04-15T02:56:16;6.70;;;2.90;;
20776;SDS011;10548;47.504;8.248;2023-04-15T02:58:45;8.13;;;2.87;;
20776;SDS011;10548;47.504;8.248;2023-04-15T03:01:12;7.10;;;2.93;;
20776;SDS011;10548;47.504;8.248;2023-04-15T03:03:40;8.03;;;3.27;;
20776;SDS011;10548;47.504;8.248;2023-04-15T03:06:24;12.70;;;2.77;;
20776;SDS011;10548;47.504;8.248;2023-04-15T03:08:51;5.77;;;2.60;;
20776;SDS011;10548;47.504;8.248;2023-04-15T03:11:19;7.97;;;2.77;;
20776;SDS011;10548;47.504;8.248;2023-04-15T03:13:47;9.60;;;3.30;;
20776;SDS011;10548;47.504;8.248;2023-04-15T03:16:34;10.33;;;2.80;;
20776;SDS011;10548;47.504;8.248;2023-04-15T03:19:01;7.03;;;3.20;;
20776;SDS011;10548;47.504;8.248;2023-04-15T03:21:30;7.73;;;2.80;;
20776;SDS011;10548;47.504;8.248;2023-04-15T03:23:58;8.80;;;3.10;;
20776;SDS011;10548;47.504;8.248;2023-04-15T03:26:26;9.43;;;2.93;;
20776;SDS011;10548;47.504;8.248;2023-04-15T03:28:57;6.47;;;2.63;;
20776;SDS011;10548;47.504;8.248;2023-04-15T03:31:24;6.63;;;2.73;;
20776;SDS011;10548;47.504;8.248;2023-04-15T03:33:52;5.67;;;2.50;;
20776;SDS011;10548;47.504;8.248;2023-04-15T03:36:19;6.10;;;2.37;;
20776;SDS011;10548;47.504;8.248;2023-04-15T03:38:46;8.50;;;3.07;;
20776;SDS011;10548;47.504;8.248;2023-04-15T03:41:14;8.97;;;2.47;;
20776;SDS011;10548;47.504;8.248;2023-04-15T03:43:41;13.67;;;2.80;;
20776;SDS011;10548;47.504;8.248;2023-04-15T03:46:08;10.80;;;3.00;;
20776;SDS011;10548;47.504;8.248;2023-04-15T03:48:36;10.73;;;2.83;;
20776;SDS011;10548;47.504;8.248;2023-04-15T03:51:03;5.63;;;2.40;;
20776;SDS011;10548;47.504;8.248;2023-04-15T03:53:30;8.87;;;2.83;;
20776;SDS011;10548;47.504;8.248;2023-04-15T03:55:57;9.70;;;2.97;;
20776;SDS011;10548;47.504;8.248;2023-04-15T03:58:24;9.43;;;2.60;;
20776;SDS011;10548;47.504;8.248;2023-04-15T04:00:52;6.80;;;2.40;;
20776;SDS011;10548;47.504;8.248;2023-04-15T04:03:20;8.03;;;2.23;;
20776;SDS011;10548;47.504;8.248;2023-04-15T04:05:47;7.63;;;2.40;;
20776;SDS011;10548;47.504;8.248;2023-04-15T04:08:14;5.67;;;2.60;;
20776;SDS011;10548;47.504;8.248;2023-04-15T04:10:42;5.17;;;2.20;;
20776;SDS011;10548;47.504;8.248;2023-04-15T04:13:09;7.27;;;3.00;;
20776;SDS011;10548;47.504;8.248;2023-04-15T04:15:36;8.47;;;2.10;;
20776;SDS011;10548;47.504;8.248;2023-04-15T04:18:03;4.97;;;1.97;;
20776;SDS011;10548;47.504;8.248;2023-04-15T04:20:30;4.17;;;2.00;;
20776;SDS011;10548;47.504;8.248;2023-04-15T04:22:57;8.23;;;2.40;;
20776;SDS011;10548;47.504;8.248;2023-04-15T04:25:25;4.80;;;2.20;;
20776;SDS011;10548;47.504;8.248;2023-04-15T04:27:52;6.73;;;2.33;;
20776;SDS011;10548;47.504;8.248;2023-04-15T04:30:19;13.23;;;2.87;;
20776;SDS011;10548;47.504;8.248;2023-04-15T04:32:46;7.60;;;2.37;;
20776;SDS011;10548;47.504;8.248;2023-04-15T04:35:16;4.07;;;1.97;;
20776;SDS011;10548;47.504;8.248;2023-04-15T04:37:43;9.13;;;2.00;;
20776;SDS011;10548;47.504;8.248;2023-04-15T04:40:10;5.13;;;2.30;;
20776;SDS011;10548;47.504;8.248;2023-04-15T04:42:38;8.67;;;3.00;;
20776;SDS011;10548;47.504;8.248;2023-04-15T04:45:06;8.23;;;2.40;;
20776;SDS011;10548;47.504;8.248;2023-04-15T04:47:34;10.90;;;2.53;;
20776;SDS011;10548;47.504;8.248;2023-04-15T04:50:01;6.97;;;2.17;;
20776;SDS011;10548;47.504;8.248;2023-04-15T04:52:28;7.23;;;2.20;;
20776;SDS011;10548;47.504;8.248;2023-04-15T04:54:55;7.20;;;2.10;;
20776;SDS011;10548;47.504;8.248;2023-04-15T04:57:23;8.23;;;2.10;;
20776;SDS011;10548;47.504;8.248;2023-04-15T04:59:50;7.63;;;2.00;;
20776;SDS011;10548;47.504;8.248;2023-04-15T05:02:17;6.53;;;2.10;;
20776;SDS011;10548;47.504;8.248;2023-04-15T05:04:44;8.80;;;2.20;;
20776;SDS011;10548;47.504;8.248;2023-04-15T05:07:11;8.13;;;2.80;;
20776;SDS011;10548;47.504;8.248;2023-04-15T05:09:39;4.67;;;2.10;;
20776;SDS011;10548;47.504;8.248;2023-04-15T05:12:06;4.93;;;2.30;;
20776;SDS011;10548;47.504;8.248;2023-04-15T05:14:34;7.63;;;2.40;;
20776;SDS011;10548;47.504;8.248;2023-04-15T05:17:01;4.60;;;2.40;;
20776;SDS011;10548;47.504;8.248;2023-04-15T05:19:29;4.10;;;1.77;;
20776;SDS011;10548;47.504;8.248;2023-04-15T05:21:56;4.83;;;2.77;;
20776;SDS011;10548;47.504;8.248;2023-04-15T05:24:23;4.83;;;2.37;;
20776;SDS011;10548;47.504;8.248;2023-04-15T05:26:50;6.93;;;2.50;;
20776;SDS011;10548;47.504;8.248;2023-04-15T05:29:17;7.33;;;2.97;;
20776;SDS011;10548;47.504;8.248;2023-04-15T05:31:44;5.53;;;2.63;;
20776;SDS011;10548;47.504;8.248;2023-04-15T05:34:12;7.13;;;2.80;;
20776;SDS011;10548;47.504;8.248;2023-04-15T05:36:41;8.37;;;2.63;;
20776;SDS011;10548;47.504;8.248;2023-04-15T05:39:08;6.87;;;2.30;;
20776;SDS011;10548;47.504;8.248;2023-04-15T05:41:35;6.30;;;2.80;;
20776;SDS011;10548;47.504;8.248;2023-04-15T05:44:03;7.17;;;2.70;;
20776;SDS011;10548;47.504;8.248;2023-04-15T05:46:30;5.93;;;2.90;;
20776;SDS011;10548;47.504;8.248;2023-04-15T05:48:58;5.07;;;2.47;;
20776;SDS011;10548;47.504;8.248;2023-04-15T05:51:25;11.53;;;2.70;;
20776;SDS011;10548;47.504;8.248;2023-04-15T05:53:53;4.87;;;2.40;;
20776;SDS011;10548;47.504;8.248;2023-04-15T05:56:20;7.33;;;2.77;;
20776;SDS011;10548;47.504;8.248;2023-04-15T05:58:47;4.60;;;2.23;;
20776;SDS011;10548;47.504;8.248;2023-04-15T06:01:16;6.93;;;2.60;;
20776;SDS011;10548;47.504;8.248;2023-04-15T06:03:43;9.63;;;2.87;;
20776;SDS011;10548;47.504;8.248;2023-04-15T06:06:10;5.30;;;2.47;;
20776;SDS011;10548;47.504;8.248;2023-04-15T06:08:37;5.17;;;2.33;;
20776;SDS011;10548;47.504;8.248;2023-04-15T06:11:04;6.43;;;2.50;;
20776;SDS011;10548;47.504;8.248;2023-04-15T06:13:32;7.07;;;3.00;;
20776;SDS011;10548;47.504;8.248;2023-04-15T06:15:59;6.23;;;2.50;;
20776;SDS011;10548;47.504;8.248;2023-04-15T06:18:26;6.10;;;2.50;;
20776;SDS011;10548;47.504;8.248;2023-04-15T06:20:53;7.90;;;2.93;;
20776;SDS011;10548;47.504;8.248;2023-04-15T06:23:21;7.67;;;2.77;;
20776;SDS011;10548;47.504;8.248;2023-04-15T06:25:48;8.17;;;2.67;;
20776;SDS011;10548;47.504;8.248;2023-04-15T06:28:15;9.47;;;2.83;;
20776;SDS011;10548;47.504;8.248;2023-04-15T06:30:42;6.40;;;3.00;;
20776;SDS011;10548;47.504;8.248;2023-04-15T06:33:09;13.20;;;3.00;;
20776;SDS011;10548;47.504;8.248;2023-04-15T06:35:36;13.30;;;3.60;;
20776;SDS011;10548;47.504;8.248;2023-04-15T06:38:04;10.30;;;2.97;;
20776;SDS011;10548;47.504;8.248;2023-04-15T06:40:31;5.17;;;2.70;;
20776;SDS011;10548;47.504;8.248;2023-04-15T06:42:59;6.90;;;2.87;;
20776;SDS011;10548;47.504;8.248;2023-04-15T06:45:26;6.70;;;2.83;;
20776;SDS011;10548;47.504;8.248;2023-04-15T06:47:53;7.63;;;2.87;;
20776;SDS011;10548;47.504;8.248;2023-04-15T06:50:20;8.37;;;3.00;;
20776;SDS011;10548;47.504;8.248;2023-04-15T06:52:47;8.67;;;3.20;;
20776;SDS011;10548;47.504;8.248;2023-04-15T06:55:14;5.77;;;2.67;;
20776;SDS011;10548;47.504;8.248;2023-04-15T06:57:42;5.47;;;2.47;;
20776;SDS011;10548;47.504;8.248;2023-04-15T07:00:09;6.13;;;3.03;;
20776;SDS011;10548;47.504;8.248;2023-04-15T07:02:37;7.60;;;2.80;;
20776;SDS011;10548;47.504;8.248;2023-04-15T07:05:05;6.87;;;2.70;;
20776;SDS011;10548;47.504;8.248;2023-04-15T07:07:32;5.83;;;2.50;;
20776;SDS011;10548;47.504;8.248;2023-04-15T07:10:00;8.33;;;3.00;;
20776;SDS011;10548;47.504;8.248;2023-04-15T07:12:28;13.17;;;3.00;;
20776;SDS011;10548;47.504;8.248;2023-04-15T07:14:56;6.00;;;3.10;;
20776;SDS011;10548;47.504;8.248;2023-04-15T07:17:23;6.30;;;2.67;;
20776;SDS011;10548;47.504;8.248;2023-04-15T07:19:50;5.30;;;2.40;;
20776;SDS011;10548;47.504;8.248;2023-04-15T07:22:17;6.50;;;2.67;;
20776;SDS011;10548;47.504;8.248;2023-04-15T07:24:45;10.43;;;2.97;;
20776;SDS011;10548;47.504;8.248;2023-04-15T07:27:12;9.17;;;3.03;;
20776;SDS011;10548;47.504;8.248;2023-04-15T07:29:39;5.70;;;2.67;;
20776;SDS011;10548;47.504;8.248;2023-04-15T07:32:06;7.63;;;2.87;;
20776;SDS011;10548;47.504;8.248;2023-04-15T07:34:33;6.33;;;2.70;;
20776;SDS011;10548;47.504;8.248;2023-04-15T07:37:01;4.23;;;2.63;;
20776;SDS011;10548;47.504;8.248;2023-04-15T07:39:28;9.47;;;3.10;;
20776;SDS011;10548;47.504;8.248;2023-04-15T07:41:56;11.13;;;3.33;;
20776;SDS011;10548;47.504;8.248;2023-04-15T07:44:25;8.80;;;3.00;;
20776;SDS011;10548;47.504;8.248;2023-04-15T07:46:54;8.27;;;3.37;;
20776;SDS011;10548;47.504;8.248;2023-04-15T07:49:21;8.10;;;3.50;;
20776;SDS011;10548;47.504;8.248;2023-04-15T07:51:49;8.30;;;3.27;;
20776;SDS011;10548;47.504;8.248;2023-04-15T07:54:16;10.17;;;3.63;;
20776;SDS011;10548;47.504;8.248;2023-04-15T07:56:44;9.70;;;3.57;;
20776;SDS011;10548;47.504;8.248;2023-04-15T07:59:11;7.07;;;2.90;;
20776;SDS011;10548;47.504;8.248;2023-04-15T08:01:38;7.43;;;2.80;;
20776;SDS011;10548;47.504;8.248;2023-04-15T08:04:05;9.60;;;3.13;;
20776;SDS011;10548;47.504;8.248;2023-04-15T08:06:33;8.93;;;3.30;;
20776;SDS011;10548;47.504;8.248;2023-04-15T08:09:00;10.73;;;3.30;;
20776;SDS011;10548;47.504;8.248;2023-04-15T08:11:28;6.47;;;3.93;;
20776;SDS011;10548;47.504;8.248;2023-04-15T08:13:56;6.27;;;2.93;;
20776;SDS011;10548;47.504;8.248;2023-04-15T08:16:24;10.00;;;3.50;;
20776;SDS011;10548;47.504;8.248;2023-04-15T08:18:53;27.70;;;4.10;;
20776;SDS011;10548;47.504;8.248;2023-04-15T08:21:22;10.43;;;3.90;;
20776;SDS011;10548;47.504;8.248;2023-04-15T08:23:50;5.67;;;3.10;;
20776;SDS011;10548;47.504;8.248;2023-04-15T08:26:19;6.73;;;2.87;;
20776;SDS011;10548;47.504;8.248;2023-04-15T08:28:47;6.17;;;3.20;;
20776;SDS011;10548;47.504;8.248;2023-04-15T08:31:15;6.13;;;3.03;;
20776;SDS011;10548;47.504;8.248;2023-04-15T08:33:43;7.97;;;3.27;;
20776;SDS011;10548;47.504;8.248;2023-04-15T08:36:11;7.17;;;3.20;;
20776;SDS011;10548;47.504;8.248;2023-04-15T08:38:39;5.80;;;2.90;;
20776;SDS011;10548;47.504;8.248;2023-04-15T08:41:08;7.87;;;3.73;;
20776;SDS011;10548;47.504;8.248;2023-04-15T08:43:50;10.20;;;3.80;;
20776;SDS011;10548;47.504;8.248;2023-04-15T08:46:29;7.67;;;3.50;;
20776;SDS011;10548;47.504;8.248;2023-04-15T08:48:57;6.87;;;3.60;;
20776;SDS011;10548;47.504;8.248;2023-04-15T08:51:25;9.43;;;3.57;;
20776;SDS011;10548;47.504;8.248;2023-04-15T08:53:53;8.97;;;3.90;;
20776;SDS011;10548;47.504;8.248;2023-04-15T08:56:22;7.03;;;3.80;;
20776;SDS011;10548;47.504;8.248;2023-04-15T08:58:52;6.03;;;3.10;;
20776;SDS011;10548;47.504;8.248;2023-04-15T09:01:19;4.43;;;2.50;;
20776;SDS011;10548;47.504;8.248;2023-04-15T09:03:50;9.37;;;3.50;;
20776;SDS011;10548;47.504;8.248;2023-04-15T09:06:20;5.80;;;2.80;;
20776;SDS011;10548;47.504;8.248;2023-04-15T09:08:51;5.13;;;3.20;;
20776;SDS011;10548;47.504;8.248;2023-04-15T09:11:19;6.23;;;3.00;;
20776;SDS011;10548;47.504;8.248;2023-04-15T09:13:48;6.03;;;2.70;;
20776;SDS011;10548;47.504;8.248;2023-04-15T09:16:15;7.37;;;2.87;;
20776;SDS011;10548;47.504;8.248;2023-04-15T09:18:42;4.57;;;1.93;;
20776;SDS011;10548;47.504;8.248;2023-04-15T09:21:10;6.50;;;2.30;;
20776;SDS011;10548;47.504;8.248;2023-04-15T09:23:59;6.57;;;2.57;;
20776;SDS011;10548;47.504;8.248;2023-04-15T09:26:34;6.97;;;2.30;;
20776;SDS011;10548;47.504;8.248;2023-04-15T09:29:04;3.87;;;1.97;;
20776;SDS011;10548;47.504;8.248;2023-04-15T09:31:40;6.10;;;2.10;;
20776;SDS011;10548;47.504;8.248;2023-04-15T09:34:08;5.50;;;2.13;;
20776;SDS011;10548;47.504;8.248;2023-04-15T09:36:39;9.30;;;2.50;;
20776;SDS011;10548;47.504;8.248;2023-04-15T09:39:18;6.70;;;2.30;;
20776;SDS011;10548;47.504;8.248;2023-04-15T09:41:45;4.47;;;2.47;;
20776;SDS011;10548;47.504;8.248;2023-04-15T09:44:34;7.60;;;2.40;;
20776;SDS011;10548;47.504;8.248;2023-04-15T09:47:00;4.10;;;2.07;;
20776;SDS011;10548;47.504;8.248;2023-04-15T09:49:27;4.13;;;1.90;;
20776;SDS011;10548;47.504;8.248;2023-04-15T09:52:01;5.40;;;2.40;;
20776;SDS011;10548;47.504;8.248;2023-04-15T09:54:35;5.50;;;2.40;;
20776;SDS011;10548;47.504;8.248;2023-04-15T09:57:04;6.80;;;2.53;;
20776;SDS011;10548;47.504;8.248;2023-04-15T09:59:35;7.80;;;2.13;;
20776;SDS011;10548;47.504;8.248;2023-04-15T10:02:03;6.47;;;2.47;;
20776;SDS011;10548;47.504;8.248;2023-04-15T10:04:33;3.27;;;2.07;;
20776;SDS011;10548;47.504;8.248;2023-04-15T10:07:02;6.03;;;2.30;;
20776;SDS011;10548;47.504;8.248;2023-04-15T10:09:31;7.50;;;2.57;;
20776;SDS011;10548;47.504;8.248;2023-04-15T10:12:00;6.20;;;2.40;;
20776;SDS011;10548;47.504;8.248;2023-04-15T10:14:33;4.93;;;2.00;;
20776;SDS011;10548;47.504;8.248;2023-04-15T10:17:01;3.27;;;1.80;;
20776;SDS011;10548;47.504;8.248;2023-04-15T10:19:32;7.17;;;2.60;;
20776;SDS011;10548;47.504;8.248;2023-04-15T10:22:02;9.27;;;2.50;;
20776;SDS011;10548;47.504;8.248;2023-04-15T10:24:30;4.63;;;2.00;;
20776;SDS011;10548;47.504;8.248;2023-04-15T10:26:58;4.43;;;2.00;;
20776;SDS011;10548;47.504;8.248;2023-04-15T10:29:26;7.93;;;2.83;;
20776;SDS011;10548;47.504;8.248;2023-04-15T10:31:57;3.97;;;2.13;;
20776;SDS011;10548;47.504;8.248;2023-04-15T10:34:26;4.77;;;2.20;;
20776;SDS011;10548;47.504;8.248;2023-04-15T10:37:02;5.27;;;2.53;;
20776;SDS011;10548;47.504;8.248;2023-04-15T10:42:17;6.70;;;2.77;;
20776;SDS011;10548;47.504;8.248;2023-04-15T10:44:48;6.00;;;2.67;;
20776;SDS011;10548;47.504;8.248;2023-04-15T10:47:18;8.00;;;3.00;;
20776;SDS011;10548;47.504;8.248;2023-04-15T10:49:50;7.00;;;2.10;;
20776;SDS011;10548;47.504;8.248;2023-04-15T10:52:24;6.57;;;2.53;;
20776;SDS011;10548;47.504;8.248;2023-04-15T10:55:03;5.47;;;2.33;;
20776;SDS011;10548;47.504;8.248;2023-04-15T10:57:40;4.77;;;2.37;;
20776;SDS011;10548;47.504;8.248;2023-04-15T11:00:11;6.20;;;2.20;;
20776;SDS011;10548;47.504;8.248;2023-04-15T11:02:44;5.80;;;2.47;;
20776;SDS011;10548;47.504;8.248;2023-04-15T11:05:18;8.13;;;2.40;;
20776;SDS011;10548;47.504;8.248;2023-04-15T11:07:53;4.77;;;1.80;;
20776;SDS011;10548;47.504;8.248;2023-04-15T11:10:49;5.70;;;2.10;;
20776;SDS011;10548;47.504;8.248;2023-04-15T11:13:20;3.53;;;2.07;;
20776;SDS011;10548;47.504;8.248;2023-04-15T11:15:49;2.97;;;1.80;;
20776;SDS011;10548;47.504;8.248;2023-04-15T11:18:18;5.17;;;2.13;;
20776;SDS011;10548;47.504;8.248;2023-04-15T11:20:53;4.63;;;1.90;;
20776;SDS011;10548;47.504;8.248;2023-04-15T11:23:32;7.03;;;2.90;;
20776;SDS011;10548;47.504;8.248;2023-04-15T11:26:09;7.13;;;2.47;;
20776;SDS011;10548;47.504;8.248;2023-04-15T11:28:41;6.60;;;2.60;;
20776;SDS011;10548;47.504;8.248;2023-04-15T11:33:52;4.40;;;2.57;;
20776;SDS011;10548;47.504;8.248;2023-04-15T11:36:30;6.87;;;2.47;;
20776;SDS011;10548;47.504;8.248;2023-04-15T11:38:58;4.77;;;2.17;;
20776;SDS011;10548;47.504;8.248;2023-04-15T11:41:25;4.13;;;2.03;;
20776;SDS011;10548;47.504;8.248;2023-04-15T11:43:52;3.97;;;2.47;;
20776;SDS011;10548;47.504;8.248;2023-04-15T11:46:20;4.70;;;2.47;;
20776;SDS011;10548;47.504;8.248;2023-04-15T11:48:48;8.80;;;2.53;;
20776;SDS011;10548;47.504;8.248;2023-04-15T11:51:15;5.33;;;2.17;;
20776;SDS011;10548;47.504;8.248;2023-04-15T11:53:47;6.43;;;2.33;;
20776;SDS011;10548;47.504;8.248;2023-04-15T11:56:19;4.03;;;2.07;;
20776;SDS011;10548;47.504;8.248;2023-04-15T11:58:50;3.93;;;2.03;;
20776;SDS011;10548;47.504;8.248;2023-04-15T12:01:18;6.10;;;2.20;;
20776;SDS011;10548;47.504;8.248;2023-04-15T12:03:45;3.47;;;1.97;;
20776;SDS011;10548;47.504;8.248;2023-04-15T12:06:30;5.17;;;2.57;;
20776;SDS011;10548;47.504;8.248;2023-04-15T12:09:02;4.70;;;2.40;;
20776;SDS011;10548;47.504;8.248;2023-04-15T12:11:58;6.20;;;2.60;;
20776;SDS011;10548;47.504;8.248;2023-04-15T12:14:26;3.70;;;2.00;;
20776;SDS011;10548;47.504;8.248;2023-04-15T12:16:58;2.80;;;1.80;;
20776;SDS011;10548;47.504;8.248;2023-04-15T12:19:33;4.57;;;2.10;;
20776;SDS011;10548;47.504;8.248;2023-04-15T12:22:05;6.27;;;2.07;;
20776;SDS011;10548;47.504;8.248;2023-04-15T12:24:35;4.53;;;2.37;;
20776;SDS011;10548;47.504;8.248;2023-04-15T12:27:04;5.00;;;1.73;;
20776;SDS011;10548;47.504;8.248;2023-04-15T12:29:33;3.53;;;1.87;;
20776;SDS011;10548;47.504;8.248;2023-04-15T12:32:11;6.37;;;1.93;;
20776;SDS011;10548;47.504;8.248;2023-04-15T12:34:41;3.00;;;1.90;;
20776;SDS011;10548;47.504;8.248;2023-04-15T12:37:20;4.03;;;1.67;;
20776;SDS011;10548;47.504;8.248;2023-04-15T12:39:47;6.93;;;2.27;;
20776;SDS011;10548;47.504;8.248;2023-04-15T12:42:16;4.27;;;1.77;;
20776;SDS011;10548;47.504;8.248;2023-04-15T12:44:43;2.43;;;1.50;;
20776;SDS011;10548;47.504;8.248;2023-04-15T12:47:11;4.53;;;1.73;;
20776;SDS011;10548;47.504;8.248;2023-04-15T12:49:38;6.10;;;2.00;;
20776;SDS011;10548;47.504;8.248;2023-04-15T12:52:06;2.60;;;1.60;;
20776;SDS011;10548;47.504;8.248;2023-04-15T12:54:34;3.47;;;1.93;;
20776;SDS011;10548;47.504;8.248;2023-04-15T12:57:01;3.40;;;1.60;;
20776;SDS011;10548;47.504;8.248;2023-04-15T12:59:32;3.50;;;1.80;;
20776;SDS011;10548;47.504;8.248;2023-04-15T13:02:00;3.57;;;1.50;;
20776;SDS011;10548;47.504;8.248;2023-04-15T13:04:28;2.07;;;1.30;;
20776;SDS011;10548;47.504;8.248;2023-04-15T13:06:57;4.33;;;1.63;;
20776;SDS011;10548;47.504;8.248;2023-04-15T13:09:24;5.40;;;1.73;;
20776;SDS011;10548;47.504;8.248;2023-04-15T13:11:51;4.13;;;1.70;;
20776;SDS011;10548;47.504;8.248;2023-04-15T13:14:19;7.50;;;1.50;;
20776;SDS011;10548;47.504;8.248;2023-04-15T13:16:46;2.37;;;1.47;;
20776;SDS011;10548;47.504;8.248;2023-04-15T13:19:14;6.40;;;1.73;;
20776;SDS011;10548;47.504;8.248;2023-04-15T13:21:41;2.17;;;1.40;;
20776;SDS011;10548;47.504;8.248;2023-04-15T13:24:08;2.27;;;1.30;;
20776;SDS011;10548;47.504;8.248;2023-04-15T13:26:35;3.57;;;1.50;;
20776;SDS011;10548;47.504;8.248;2023-04-15T13:29:03;2.83;;;1.50;;
20776;SDS011;10548;47.504;8.248;2023-04-15T13:31:30;3.70;;;1.57;;
20776;SDS011;10548;47.504;8.248;2023-04-15T13:33:58;4.10;;;1.30;;
20776;SDS011;10548;47.504;8.248;2023-04-15T13:36:25;2.87;;;1.30;;
20776;SDS011;10548;47.504;8.248;2023-04-15T13:38:53;1.73;;;1.20;;
20776;SDS011;10548;47.504;8.248;2023-04-15T13:41:20;4.70;;;1.47;;
20776;SDS011;10548;47.504;8.248;2023-04-15T13:43:47;1.33;;;1.03;;
20776;SDS011;10548;47.504;8.248;2023-04-15T13:46:14;1.60;;;1.10;;
20776;SDS011;10548;47.504;8.248;2023-04-15T13:48:42;1.67;;;1.10;;
20776;SDS011;10548;47.504;8.248;2023-04-15T13:51:09;3.47;;;1.10;;
20776;SDS011;10548;47.504;8.248;2023-04-15T13:53:36;2.27;;;0.90;;
20776;SDS011;10548;47.504;8.248;2023-04-15T13:56:06;2.60;;;1.37;;
20776;SDS011;10548;47.504;8.248;2023-04-15T13:58:33;1.83;;;1.03;;
20776;SDS011;10548;47.504;8.248;2023-04-15T14:01:02;1.97;;;0.80;;
20776;SDS011;10548;47.504;8.248;2023-04-15T14:03:31;1.73;;;1.07;;
20776;SDS011;10548;47.504;8.248;2023-04-15T14:06:00;2.30;;;0.80;;
20776;SDS011;10548;47.504;8.248;2023-04-15T14:08:27;2.07;;;0.80;;
20776;SDS011;10548;47.504;8.248;2023-04-15T14:10:55;0.70;;;0.70;;
20776;SDS011;10548;47.504;8.248;2023-04-15T14:13:23;1.63;;;0.80;;
20776;SDS011;10548;47.504;8.248;2023-04-15T14:15:50;1.33;;;0.63;;
20776;SDS011;10548;47.504;8.248;2023-04-15T14:18:17;1.90;;;0.87;;
20776;SDS011;10548;47.504;8.248;2023-04-15T14:20:45;1.50;;;0.90;;
20776;SDS011;10548;47.504;8.248;2023-04-15T14:23:12;3.60;;;1.53;;
20776;SDS011;10548;47.504;8.248;2023-04-15T14:25:39;9.40;;;4.00;;
20776;SDS011;10548;47.504;8.248;2023-04-15T14:28:06;20.73;;;9.03;;
20776;SDS011;10548;47.504;8.248;2023-04-15T14:30:33;1.70;;;0.90;;
20776;SDS011;10548;47.504;8.248;2023-04-15T14:33:01;3.13;;;1.00;;
20776;SDS011;10548;47.504;8.248;2023-04-15T14:35:29;1.73;;;0.90;;
20776;SDS011;10548;47.504;8.248;2023-04-15T14:37:57;12.53;;;6.07;;
20776;SDS011;10548;47.504;8.248;2023-04-15T14:40:24;10.17;;;4.30;;
20776;SDS011;10548;47.504;8.248;2023-04-15T14:42:51;0.80;;;0.80;;
20776;SDS011;10548;47.504;8.248;2023-04-15T14:45:18;2.43;;;0.80;;
20776;SDS011;10548;47.504;8.248;2023-04-15T14:47:46;1.97;;;0.90;;
20776;SDS011;10548;47.504;8.248;2023-04-15T14:50:13;3.83;;;1.00;;
20776;SDS011;10548;47.504;8.248;2023-04-15T14:52:40;1.20;;;0.73;;
20776;SDS011;10548;47.504;8.248;2023-04-15T14:55:08;1.57;;;1.00;;
20776;SDS011;10548;47.504;8.248;2023-04-15T14:57:36;2.80;;;0.80;;
20776;SDS011;10548;47.504;8.248;2023-04-15T15:00:05;2.40;;;0.80;;